Bernasconi, Argentina
Current Conditions -  °F | °C
As of 12:00 PM on Monday 24 Nov 2014 (Local Time) from SAZN Reporting Station
Clear Clear  
Wind Chill: 64°   Ceiling: Unl
Heat Index: 64°   Visibility: 6mi
Dew Point: 30°   Wind: 12mph
Humidity: 28%   Direction: 230°SW
Pressure: 29.97"   Gusts: NA
Location:  37.9°S, 63.72°W
Report Text: SAZN 241500Z 23010KT CAVOK 18/M01 Q1015
Loading
Personal Weather Stations






























Interactive Weather Map New forecast layout! Learn more

10-Day Weather Forecast

Advertisements
Track Severe Weather on mobile